Estación Meteorológica Peña el Pijo (Robertgarden) [ 01/30/23 14:47:27 CET ]

Fecha Hora Presion(HPa) Temp (°C) Humedad % Rocio (°C) Viento ( m/s) Direccion Lluvia 1Hora(mm) Lluvia 24H(mm) LLuvia Total(mm)
2010-Jun-24 01:01:12 1012.400 14.4 68 8.6         120.17
2010-Jun-24 02:01:11 1012.300 13.3 72 8.3         120.17
2010-Jun-24 03:03:13 1012.100 12.1 76 8.0         120.17
2010-Jun-24 04:01:18 1011.900 11.3 79 7.8         120.17
2010-Jun-24 05:01:12 1011.600 11.1 80 7.8         120.17
2010-Jun-24 06:01:14 1011.700 10.6 80 7.3         120.17
2010-Jun-24 07:01:13 1011.800 10.2 82 7.2         120.17
2010-Jun-24 08:01:14 1011.900 12.0 82 9.0         120.17
2010-Jun-24 09:01:14 1012.000 18.3 64 11.3         120.17
2010-Jun-24 10:01:13 1012.000 23.1 48 11.4         120.17
2010-Jun-24 11:01:11 1011.600 28.4 36 11.8         120.17
2010-Jun-24 12:01:13 1011.400 32.5 26 10.3         120.17
2010-Jun-24 13:01:17 1011.400 31.8 21 6.7         120.17
2010-Jun-24 14:01:16 1011.200 33.0 20 7.1         120.17
2010-Jun-24 15:01:11 1011.100 31.9 21 6.8         120.17
2010-Jun-24 16:01:11 1010.900 32.4 21 7.2         120.17
2010-Jun-24 17:01:12 1010.300 33.5 21 8.1         120.17
2010-Jun-24 18:01:13 1010.300 30.4 23 6.7         120.17
2010-Jun-24 19:01:12 1010.500 28.9 27 7.8         120.17
2010-Jun-24 20:01:13 1010.500 26.6 30 7.6         120.17
2010-Jun-24 21:01:13 1010.600 25.4 33 7.9         120.17
2010-Jun-24 22:01:14 1011.000 23.5 38 8.3         120.17
2010-Jun-24 23:01:13 1011.800 20.9 43 7.8         120.17

Temperatura Máxima:33°    Temperatura Mínima:10°
Presión Máxima:1012.400 Hpa    Presión Mínima:1010.300 Hpa


Volver